sensor_id;sensor_type;location;lat;lon;timestamp;P1;durP1;ratioP1;P2;durP2;ratioP2
48076;SDS011;33854;57.708;12.008;2023-03-11T00:00:58;7.77;;;5.13;;
48076;SDS011;33854;57.708;12.008;2023-03-11T00:03:24;5.00;;;3.17;;
48076;SDS011;33854;57.708;12.008;2023-03-11T00:05:51;7.03;;;5.03;;
48076;SDS011;33854;57.708;12.008;2023-03-11T00:08:19;6.85;;;4.63;;
48076;SDS011;33854;57.708;12.008;2023-03-11T00:10:47;6.45;;;5.03;;
48076;SDS011;33854;57.708;12.008;2023-03-11T00:13:16;6.30;;;4.53;;
48076;SDS011;33854;57.708;12.008;2023-03-11T00:15:42;7.03;;;4.60;;
48076;SDS011;33854;57.708;12.008;2023-03-11T00:18:08;9.18;;;4.63;;
48076;SDS011;33854;57.708;12.008;2023-03-11T00:20:35;8.20;;;5.20;;
48076;SDS011;33854;57.708;12.008;2023-03-11T00:23:03;11.18;;;4.90;;
48076;SDS011;33854;57.708;12.008;2023-03-11T00:25:32;6.97;;;4.88;;
48076;SDS011;33854;57.708;12.008;2023-03-11T00:27:59;8.30;;;4.68;;
48076;SDS011;33854;57.708;12.008;2023-03-11T00:30:25;6.03;;;4.38;;
48076;SDS011;33854;57.708;12.008;2023-03-11T00:32:52;8.02;;;5.50;;
48076;SDS011;33854;57.708;12.008;2023-03-11T00:35:21;8.57;;;4.63;;
48076;SDS011;33854;57.708;12.008;2023-03-11T00:37:51;7.53;;;4.82;;
48076;SDS011;33854;57.708;12.008;2023-03-11T00:40:19;6.90;;;4.43;;
48076;SDS011;33854;57.708;12.008;2023-03-11T00:42:47;5.80;;;3.95;;
48076;SDS011;33854;57.708;12.008;2023-03-11T00:45:13;7.85;;;4.40;;
48076;SDS011;33854;57.708;12.008;2023-03-11T00:50:05;7.45;;;4.30;;
48076;SDS011;33854;57.708;12.008;2023-03-11T00:52:33;9.38;;;4.70;;
48076;SDS011;33854;57.708;12.008;2023-03-11T00:54:59;6.47;;;4.73;;
48076;SDS011;33854;57.708;12.008;2023-03-11T00:57:24;5.27;;;3.47;;
48076;SDS011;33854;57.708;12.008;2023-03-11T00:59:53;7.75;;;4.65;;
48076;SDS011;33854;57.708;12.008;2023-03-11T01:02:18;5.30;;;3.53;;
48076;SDS011;33854;57.708;12.008;2023-03-11T01:04:44;8.13;;;5.10;;
48076;SDS011;33854;57.708;12.008;2023-03-11T01:07:10;8.53;;;4.67;;
48076;SDS011;33854;57.708;12.008;2023-03-11T01:09:35;8.30;;;4.63;;
48076;SDS011;33854;57.708;12.008;2023-03-11T01:12:01;7.50;;;4.20;;
48076;SDS011;33854;57.708;12.008;2023-03-11T01:14:26;8.43;;;4.80;;
48076;SDS011;33854;57.708;12.008;2023-03-11T01:16:52;8.97;;;5.60;;
48076;SDS011;33854;57.708;12.008;2023-03-11T01:19:18;10.43;;;5.05;;
48076;SDS011;33854;57.708;12.008;2023-03-11T01:21:44;5.83;;;3.33;;
48076;SDS011;33854;57.708;12.008;2023-03-11T01:24:09;6.20;;;4.60;;
48076;SDS011;33854;57.708;12.008;2023-03-11T01:26:35;7.60;;;4.80;;
48076;SDS011;33854;57.708;12.008;2023-03-11T01:29:00;8.43;;;4.63;;
48076;SDS011;33854;57.708;12.008;2023-03-11T01:31:26;8.73;;;4.63;;
48076;SDS011;33854;57.708;12.008;2023-03-11T01:33:51;8.50;;;4.60;;
48076;SDS011;33854;57.708;12.008;2023-03-11T01:36:17;8.47;;;5.10;;
48076;SDS011;33854;57.708;12.008;2023-03-11T01:38:42;6.57;;;4.67;;
48076;SDS011;33854;57.708;12.008;2023-03-11T01:41:07;6.53;;;4.80;;
48076;SDS011;33854;57.708;12.008;2023-03-11T01:48:48;9.30;;;5.57;;
48076;SDS011;33854;57.708;12.008;2023-03-11T01:54:08;7.38;;;5.10;;
48076;SDS011;33854;57.708;12.008;2023-03-11T01:56:37;7.20;;;5.72;;
48076;SDS011;33854;57.708;12.008;2023-03-11T01:59:05;8.13;;;5.30;;
48076;SDS011;33854;57.708;12.008;2023-03-11T02:01:33;8.40;;;4.97;;
48076;SDS011;33854;57.708;12.008;2023-03-11T02:04:01;9.02;;;5.38;;
48076;SDS011;33854;57.708;12.008;2023-03-11T02:06:27;7.72;;;4.97;;
48076;SDS011;33854;57.708;12.008;2023-03-11T02:08:55;6.25;;;4.53;;
48076;SDS011;33854;57.708;12.008;2023-03-11T02:11:22;7.23;;;4.23;;
48076;SDS011;33854;57.708;12.008;2023-03-11T02:13:50;8.93;;;4.95;;
48076;SDS011;33854;57.708;12.008;2023-03-11T02:16:18;7.25;;;4.80;;
48076;SDS011;33854;57.708;12.008;2023-03-11T02:18:44;7.33;;;4.80;;
48076;SDS011;33854;57.708;12.008;2023-03-11T02:21:22;9.87;;;5.13;;
48076;SDS011;33854;57.708;12.008;2023-03-11T02:26:15;11.13;;;5.07;;
48076;SDS011;33854;57.708;12.008;2023-03-11T02:28:48;8.32;;;4.50;;
48076;SDS011;33854;57.708;12.008;2023-03-11T02:31:15;7.00;;;4.75;;
48076;SDS011;33854;57.708;12.008;2023-03-11T02:33:41;5.70;;;4.27;;
48076;SDS011;33854;57.708;12.008;2023-03-11T02:36:28;7.57;;;4.40;;
48076;SDS011;33854;57.708;12.008;2023-03-11T02:38:55;5.60;;;3.92;;
48076;SDS011;33854;57.708;12.008;2023-03-11T02:41:21;8.00;;;4.30;;
48076;SDS011;33854;57.708;12.008;2023-03-11T02:43:47;7.32;;;4.10;;
48076;SDS011;33854;57.708;12.008;2023-03-11T02:46:13;8.75;;;4.47;;
48076;SDS011;33854;57.708;12.008;2023-03-11T02:48:39;8.83;;;4.30;;
48076;SDS011;33854;57.708;12.008;2023-03-11T02:51:05;7.03;;;4.28;;
48076;SDS011;33854;57.708;12.008;2023-03-11T02:53:32;5.93;;;3.20;;
48076;SDS011;33854;57.708;12.008;2023-03-11T02:56:02;6.65;;;4.40;;
48076;SDS011;33854;57.708;12.008;2023-03-11T02:58:27;5.97;;;4.23;;
48076;SDS011;33854;57.708;12.008;2023-03-11T03:00:53;4.47;;;3.57;;
48076;SDS011;33854;57.708;12.008;2023-03-11T03:03:18;7.30;;;3.77;;
48076;SDS011;33854;57.708;12.008;2023-03-11T03:05:44;7.63;;;4.13;;
48076;SDS011;33854;57.708;12.008;2023-03-11T03:08:10;6.65;;;4.05;;
48076;SDS011;33854;57.708;12.008;2023-03-11T03:10:35;6.03;;;3.70;;
48076;SDS011;33854;57.708;12.008;2023-03-11T03:13:01;7.90;;;4.00;;
48076;SDS011;33854;57.708;12.008;2023-03-11T03:15:26;4.93;;;3.23;;
48076;SDS011;33854;57.708;12.008;2023-03-11T03:17:52;4.50;;;3.00;;
48076;SDS011;33854;57.708;12.008;2023-03-11T03:20:17;5.03;;;3.20;;
48076;SDS011;33854;57.708;12.008;2023-03-11T03:22:44;7.47;;;3.92;;
48076;SDS011;33854;57.708;12.008;2023-03-11T03:25:10;4.70;;;3.20;;
48076;SDS011;33854;57.708;12.008;2023-03-11T03:27:35;4.50;;;3.40;;
48076;SDS011;33854;57.708;12.008;2023-03-11T03:30:01;5.45;;;3.47;;
48076;SDS011;33854;57.708;12.008;2023-03-11T03:32:27;5.53;;;3.83;;
48076;SDS011;33854;57.708;12.008;2023-03-11T03:34:52;7.23;;;4.57;;
48076;SDS011;33854;57.708;12.008;2023-03-11T03:37:23;6.00;;;3.60;;
48076;SDS011;33854;57.708;12.008;2023-03-11T03:39:51;6.22;;;3.35;;
48076;SDS011;33854;57.708;12.008;2023-03-11T03:42:17;4.72;;;3.58;;
48076;SDS011;33854;57.708;12.008;2023-03-11T03:44:43;4.20;;;3.27;;
48076;SDS011;33854;57.708;12.008;2023-03-11T03:47:08;4.00;;;3.20;;
48076;SDS011;33854;57.708;12.008;2023-03-11T03:49:34;4.70;;;3.40;;
48076;SDS011;33854;57.708;12.008;2023-03-11T03:51:59;5.77;;;3.80;;
48076;SDS011;33854;57.708;12.008;2023-03-11T03:54:25;4.10;;;3.50;;
48076;SDS011;33854;57.708;12.008;2023-03-11T03:56:50;5.63;;;3.57;;
48076;SDS011;33854;57.708;12.008;2023-03-11T03:59:16;7.13;;;3.77;;
48076;SDS011;33854;57.708;12.008;2023-03-11T04:01:41;5.57;;;3.60;;
48076;SDS011;33854;57.708;12.008;2023-03-11T04:04:06;5.40;;;4.03;;
48076;SDS011;33854;57.708;12.008;2023-03-11T04:06:32;6.97;;;4.20;;
48076;SDS011;33854;57.708;12.008;2023-03-11T04:08:58;8.38;;;4.43;;
48076;SDS011;33854;57.708;12.008;2023-03-11T04:11:23;6.77;;;4.13;;
48076;SDS011;33854;57.708;12.008;2023-03-11T04:13:49;9.87;;;4.10;;
48076;SDS011;33854;57.708;12.008;2023-03-11T04:16:15;5.47;;;4.00;;
48076;SDS011;33854;57.708;12.008;2023-03-11T04:18:43;6.30;;;4.32;;
48076;SDS011;33854;57.708;12.008;2023-03-11T04:21:09;8.50;;;3.93;;
48076;SDS011;33854;57.708;12.008;2023-03-11T04:23:35;5.70;;;3.83;;
48076;SDS011;33854;57.708;12.008;2023-03-11T04:26:00;7.80;;;4.60;;
48076;SDS011;33854;57.708;12.008;2023-03-11T04:28:26;6.00;;;3.93;;
48076;SDS011;33854;57.708;12.008;2023-03-11T04:30:51;6.93;;;4.57;;
48076;SDS011;33854;57.708;12.008;2023-03-11T04:33:17;10.53;;;5.17;;
48076;SDS011;33854;57.708;12.008;2023-03-11T04:35:43;7.43;;;4.80;;
48076;SDS011;33854;57.708;12.008;2023-03-11T04:38:08;7.07;;;4.63;;
48076;SDS011;33854;57.708;12.008;2023-03-11T04:40:35;8.00;;;4.70;;
48076;SDS011;33854;57.708;12.008;2023-03-11T04:43:03;9.77;;;4.50;;
48076;SDS011;33854;57.708;12.008;2023-03-11T04:45:29;7.03;;;5.03;;
48076;SDS011;33854;57.708;12.008;2023-03-11T04:47:55;8.60;;;5.27;;
48076;SDS011;33854;57.708;12.008;2023-03-11T04:50:20;8.00;;;5.03;;
48076;SDS011;33854;57.708;12.008;2023-03-11T04:52:46;11.00;;;5.37;;
48076;SDS011;33854;57.708;12.008;2023-03-11T04:55:12;7.67;;;5.27;;
48076;SDS011;33854;57.708;12.008;2023-03-11T04:57:38;11.20;;;6.63;;
48076;SDS011;33854;57.708;12.008;2023-03-11T05:00:05;14.70;;;6.20;;
48076;SDS011;33854;57.708;12.008;2023-03-11T05:02:35;9.60;;;5.57;;
48076;SDS011;33854;57.708;12.008;2023-03-11T05:07:27;11.68;;;5.82;;
48076;SDS011;33854;57.708;12.008;2023-03-11T05:09:53;12.70;;;6.47;;
48076;SDS011;33854;57.708;12.008;2023-03-11T05:12:18;11.03;;;6.00;;
48076;SDS011;33854;57.708;12.008;2023-03-11T05:14:44;8.70;;;5.40;;
48076;SDS011;33854;57.708;12.008;2023-03-11T05:17:09;8.07;;;4.23;;
48076;SDS011;33854;57.708;12.008;2023-03-11T05:22:01;8.88;;;5.32;;
48076;SDS011;33854;57.708;12.008;2023-03-11T05:26:54;12.65;;;6.20;;
48076;SDS011;33854;57.708;12.008;2023-03-11T05:29:20;14.50;;;6.57;;
48076;SDS011;33854;57.708;12.008;2023-03-11T05:31:46;13.05;;;7.20;;
48076;SDS011;33854;57.708;12.008;2023-03-11T05:34:12;11.05;;;6.00;;
48076;SDS011;33854;57.708;12.008;2023-03-11T05:36:38;11.52;;;7.00;;
48076;SDS011;33854;57.708;12.008;2023-03-11T05:39:03;11.43;;;6.90;;
48076;SDS011;33854;57.708;12.008;2023-03-11T05:41:29;14.23;;;7.33;;
48076;SDS011;33854;57.708;12.008;2023-03-11T05:43:54;13.03;;;6.67;;
48076;SDS011;33854;57.708;12.008;2023-03-11T05:46:20;12.90;;;7.27;;
48076;SDS011;33854;57.708;12.008;2023-03-11T05:48:45;15.40;;;7.57;;
48076;SDS011;33854;57.708;12.008;2023-03-11T05:51:11;10.97;;;5.70;;
48076;SDS011;33854;57.708;12.008;2023-03-11T05:53:37;10.88;;;6.10;;
48076;SDS011;33854;57.708;12.008;2023-03-11T05:56:05;13.05;;;6.57;;
48076;SDS011;33854;57.708;12.008;2023-03-11T05:58:31;11.75;;;6.15;;
48076;SDS011;33854;57.708;12.008;2023-03-11T06:00:57;9.20;;;6.00;;
48076;SDS011;33854;57.708;12.008;2023-03-11T06:03:24;13.90;;;6.00;;
48076;SDS011;33854;57.708;12.008;2023-03-11T06:05:50;7.38;;;4.22;;
48076;SDS011;33854;57.708;12.008;2023-03-11T06:08:17;10.70;;;6.70;;
48076;SDS011;33854;57.708;12.008;2023-03-11T06:10:43;10.30;;;5.95;;
48076;SDS011;33854;57.708;12.008;2023-03-11T06:13:09;9.30;;;5.13;;
48076;SDS011;33854;57.708;12.008;2023-03-11T06:15:35;8.77;;;6.07;;
48076;SDS011;33854;57.708;12.008;2023-03-11T06:20:27;10.57;;;6.22;;
48076;SDS011;33854;57.708;12.008;2023-03-11T06:22:53;12.30;;;7.40;;
48076;SDS011;33854;57.708;12.008;2023-03-11T06:25:18;9.57;;;5.47;;
48076;SDS011;33854;57.708;12.008;2023-03-11T06:27:47;14.60;;;6.90;;
48076;SDS011;33854;57.708;12.008;2023-03-11T06:30:14;13.68;;;6.65;;
48076;SDS011;33854;57.708;12.008;2023-03-11T06:32:42;10.98;;;6.40;;
48076;SDS011;33854;57.708;12.008;2023-03-11T06:35:09;11.32;;;6.00;;
48076;SDS011;33854;57.708;12.008;2023-03-11T06:37:35;9.68;;;5.78;;
48076;SDS011;33854;57.708;12.008;2023-03-11T06:40:01;11.35;;;6.63;;
48076;SDS011;33854;57.708;12.008;2023-03-11T06:42:28;9.57;;;5.60;;
48076;SDS011;33854;57.708;12.008;2023-03-11T06:44:54;15.00;;;9.03;;
48076;SDS011;33854;57.708;12.008;2023-03-11T06:47:19;55.73;;;26.93;;
48076;SDS011;33854;57.708;12.008;2023-03-11T06:49:45;14.57;;;8.67;;
48076;SDS011;33854;57.708;12.008;2023-03-11T06:52:10;12.97;;;6.23;;
48076;SDS011;33854;57.708;12.008;2023-03-11T06:54:35;9.17;;;5.70;;
48076;SDS011;33854;57.708;12.008;2023-03-11T06:57:01;9.10;;;5.22;;
48076;SDS011;33854;57.708;12.008;2023-03-11T06:59:27;11.43;;;7.07;;
48076;SDS011;33854;57.708;12.008;2023-03-11T07:01:53;10.77;;;6.33;;
48076;SDS011;33854;57.708;12.008;2023-03-11T07:04:19;9.90;;;5.65;;
48076;SDS011;33854;57.708;12.008;2023-03-11T07:06:45;9.95;;;5.10;;
48076;SDS011;33854;57.708;12.008;2023-03-11T07:09:10;9.17;;;5.23;;
48076;SDS011;33854;57.708;12.008;2023-03-11T07:11:36;9.23;;;5.47;;
48076;SDS011;33854;57.708;12.008;2023-03-11T07:14:01;10.00;;;5.03;;
48076;SDS011;33854;57.708;12.008;2023-03-11T07:16:27;8.00;;;5.00;;
48076;SDS011;33854;57.708;12.008;2023-03-11T07:18:54;8.30;;;4.93;;
48076;SDS011;33854;57.708;12.008;2023-03-11T07:21:23;10.88;;;5.00;;
48076;SDS011;33854;57.708;12.008;2023-03-11T07:23:52;9.07;;;5.10;;
48076;SDS011;33854;57.708;12.008;2023-03-11T07:26:19;9.52;;;5.00;;
48076;SDS011;33854;57.708;12.008;2023-03-11T07:28:45;8.50;;;5.45;;
48076;SDS011;33854;57.708;12.008;2023-03-11T07:31:12;7.25;;;4.63;;
48076;SDS011;33854;57.708;12.008;2023-03-11T07:33:40;8.57;;;5.10;;
48076;SDS011;33854;57.708;12.008;2023-03-11T07:36:06;7.30;;;4.80;;
48076;SDS011;33854;57.708;12.008;2023-03-11T07:38:36;10.45;;;5.40;;
48076;SDS011;33854;57.708;12.008;2023-03-11T07:43:28;7.80;;;4.53;;
48076;SDS011;33854;57.708;12.008;2023-03-11T07:46:10;10.37;;;4.90;;
48076;SDS011;33854;57.708;12.008;2023-03-11T07:48:38;8.90;;;4.82;;
48076;SDS011;33854;57.708;12.008;2023-03-11T07:51:05;8.65;;;4.95;;
48076;SDS011;33854;57.708;12.008;2023-03-11T07:53:33;8.00;;;5.18;;
48076;SDS011;33854;57.708;12.008;2023-03-11T07:55:59;35.17;;;16.00;;
48076;SDS011;33854;57.708;12.008;2023-03-11T07:58:26;14.82;;;8.40;;
48076;SDS011;33854;57.708;12.008;2023-03-11T08:00:52;9.10;;;4.90;;
48076;SDS011;33854;57.708;12.008;2023-03-11T08:03:18;9.15;;;5.20;;
48076;SDS011;33854;57.708;12.008;2023-03-11T08:05:44;7.10;;;4.50;;
48076;SDS011;33854;57.708;12.008;2023-03-11T08:08:09;6.43;;;3.93;;
48076;SDS011;33854;57.708;12.008;2023-03-11T08:10:35;8.10;;;4.73;;
48076;SDS011;33854;57.708;12.008;2023-03-11T08:15:27;6.37;;;3.93;;
48076;SDS011;33854;57.708;12.008;2023-03-11T08:17:52;5.17;;;3.27;;
48076;SDS011;33854;57.708;12.008;2023-03-11T08:20:18;3.97;;;2.73;;
48076;SDS011;33854;57.708;12.008;2023-03-11T08:22:44;7.50;;;3.20;;
48076;SDS011;33854;57.708;12.008;2023-03-11T08:25:09;3.37;;;2.13;;
48076;SDS011;33854;57.708;12.008;2023-03-11T08:27:35;33.83;;;15.07;;
48076;SDS011;33854;57.708;12.008;2023-03-11T08:30:00;24.40;;;11.10;;
48076;SDS011;33854;57.708;12.008;2023-03-11T08:32:25;6.77;;;4.53;;
48076;SDS011;33854;57.708;12.008;2023-03-11T08:34:55;5.70;;;3.60;;
48076;SDS011;33854;57.708;12.008;2023-03-11T08:37:20;3.53;;;1.90;;
48076;SDS011;33854;57.708;12.008;2023-03-11T08:39:45;2.73;;;1.97;;
48076;SDS011;33854;57.708;12.008;2023-03-11T08:42:11;3.57;;;2.23;;
48076;SDS011;33854;57.708;12.008;2023-03-11T08:44:36;4.53;;;2.30;;
48076;SDS011;33854;57.708;12.008;2023-03-11T08:47:01;5.30;;;2.10;;
48076;SDS011;33854;57.708;12.008;2023-03-11T08:49:27;2.43;;;1.90;;
48076;SDS011;33854;57.708;12.008;2023-03-11T08:51:53;3.20;;;1.97;;
48076;SDS011;33854;57.708;12.008;2023-03-11T08:54:18;3.13;;;2.17;;
48076;SDS011;33854;57.708;12.008;2023-03-11T08:56:44;5.57;;;1.90;;
48076;SDS011;33854;57.708;12.008;2023-03-11T08:59:11;2.55;;;1.73;;
48076;SDS011;33854;57.708;12.008;2023-03-11T09:01:37;1.60;;;1.20;;
48076;SDS011;33854;57.708;12.008;2023-03-11T09:04:02;2.63;;;1.53;;
48076;SDS011;33854;57.708;12.008;2023-03-11T09:06:29;3.05;;;2.03;;
48076;SDS011;33854;57.708;12.008;2023-03-11T09:08:55;4.10;;;2.07;;
48076;SDS011;33854;57.708;12.008;2023-03-11T09:11:21;5.00;;;2.83;;
48076;SDS011;33854;57.708;12.008;2023-03-11T09:13:47;3.30;;;1.77;;
48076;SDS011;33854;57.708;12.008;2023-03-11T09:16:14;5.85;;;2.20;;
48076;SDS011;33854;57.708;12.008;2023-03-11T09:18:41;3.08;;;1.90;;
48076;SDS011;33854;57.708;12.008;2023-03-11T09:21:07;3.37;;;2.00;;
48076;SDS011;33854;57.708;12.008;2023-03-11T09:23:33;4.00;;;1.63;;
48076;SDS011;33854;57.708;12.008;2023-03-11T09:25:58;7.37;;;2.40;;
48076;SDS011;33854;57.708;12.008;2023-03-11T09:28:24;3.03;;;1.90;;
48076;SDS011;33854;57.708;12.008;2023-03-11T09:30:49;2.87;;;1.67;;
48076;SDS011;33854;57.708;12.008;2023-03-11T09:33:14;3.80;;;1.43;;
48076;SDS011;33854;57.708;12.008;2023-03-11T09:35:40;2.97;;;1.23;;
48076;SDS011;33854;57.708;12.008;2023-03-11T09:38:05;2.90;;;1.47;;
48076;SDS011;33854;57.708;12.008;2023-03-11T09:40:38;5.87;;;2.40;;
48076;SDS011;33854;57.708;12.008;2023-03-11T09:51:42;1.35;;;1.00;;
48076;SDS011;33854;57.708;12.008;2023-03-11T09:54:17;1.10;;;0.90;;
48076;SDS011;33854;57.708;12.008;2023-03-11T09:56:43;1.20;;;1.10;;
48076;SDS011;33854;57.708;12.008;2023-03-11T09:59:29;1.67;;;1.27;;
48076;SDS011;33854;57.708;12.008;2023-03-11T10:01:56;1.23;;;0.77;;
48076;SDS011;33854;57.708;12.008;2023-03-11T10:04:26;1.15;;;0.90;;
48076;SDS011;33854;57.708;12.008;2023-03-11T10:06:58;1.63;;;0.52;;
48076;SDS011;33854;57.708;12.008;2023-03-11T10:20:19;3.17;;;0.52;;
48076;SDS011;33854;57.708;12.008;2023-03-11T10:31:41;1.25;;;0.55;;
48076;SDS011;33854;57.708;12.008;2023-03-11T10:37:27;1.08;;;0.57;;
48076;SDS011;33854;57.708;12.008;2023-03-11T10:42:29;1.63;;;0.50;;
48076;SDS011;33854;57.708;12.008;2023-03-11T10:44:56;1.73;;;0.60;;
48076;SDS011;33854;57.708;12.008;2023-03-11T10:47:23;1.03;;;0.20;;
48076;SDS011;33854;57.708;12.008;2023-03-11T10:49:49;0.85;;;0.50;;
48076;SDS011;33854;57.708;12.008;2023-03-11T10:52:16;1.50;;;0.70;;
48076;SDS011;33854;57.708;12.008;2023-03-11T10:54:44;0.43;;;0.40;;
48076;SDS011;33854;57.708;12.008;2023-03-11T10:59:53;0.57;;;0.38;;
48076;SDS011;33854;57.708;12.008;2023-03-11T11:07:40;1.88;;;0.32;;
48076;SDS011;33854;57.708;12.008;2023-03-11T11:12:58;1.55;;;0.75;;
48076;SDS011;33854;57.708;12.008;2023-03-11T11:23:46;0.38;;;0.38;;
48076;SDS011;33854;57.708;12.008;2023-03-11T11:28:42;1.35;;;0.50;;
48076;SDS011;33854;57.708;12.008;2023-03-11T11:31:24;0.70;;;0.57;;
48076;SDS011;33854;57.708;12.008;2023-03-11T11:36:15;2.30;;;1.00;;
48076;SDS011;33854;57.708;12.008;2023-03-11T11:38:42;1.20;;;0.40;;
48076;SDS011;33854;57.708;12.008;2023-03-11T11:41:08;3.57;;;1.20;;
48076;SDS011;33854;57.708;12.008;2023-03-11T11:44:00;1.27;;;0.90;;
48076;SDS011;33854;57.708;12.008;2023-03-11T11:49:55;0.85;;;0.55;;
48076;SDS011;33854;57.708;12.008;2023-03-11T11:52:26;3.40;;;0.80;;
48076;SDS011;33854;57.708;12.008;2023-03-11T11:57:44;2.72;;;0.60;;
48076;SDS011;33854;57.708;12.008;2023-03-11T12:05:55;0.65;;;0.43;;
48076;SDS011;33854;57.708;12.008;2023-03-11T12:11:05;3.78;;;0.70;;
48076;SDS011;33854;57.708;12.008;2023-03-11T12:19:42;1.10;;;0.65;;
48076;SDS011;33854;57.708;12.008;2023-03-11T12:30:27;0.80;;;0.38;;
48076;SDS011;33854;57.708;12.008;2023-03-11T12:32:57;0.63;;;0.45;;
48076;SDS011;33854;57.708;12.008;2023-03-11T12:35:32;1.35;;;0.50;;
48076;SDS011;33854;57.708;12.008;2023-03-11T12:40:45;1.50;;;0.70;;
48076;SDS011;33854;57.708;12.008;2023-03-11T12:46:00;1.40;;;0.50;;
48076;SDS011;33854;57.708;12.008;2023-03-11T12:48:44;0.60;;;0.52;;
48076;SDS011;33854;57.708;12.008;2023-03-11T12:53:51;1.30;;;0.50;;
48076;SDS011;33854;57.708;12.008;2023-03-11T13:01:23;4.47;;;1.00;;
48076;SDS011;33854;57.708;12.008;2023-03-11T13:09:13;3.77;;;1.10;;
48076;SDS011;33854;57.708;12.008;2023-03-11T13:11:42;3.60;;;0.85;;
48076;SDS011;33854;57.708;12.008;2023-03-11T13:14:31;4.30;;;1.30;;
48076;SDS011;33854;57.708;12.008;2023-03-11T13:17:31;6.32;;;1.08;;
48076;SDS011;33854;57.708;12.008;2023-03-11T13:19:55;1.90;;;0.85;;
48076;SDS011;33854;57.708;12.008;2023-03-11T13:27:59;4.25;;;1.35;;
48076;SDS011;33854;57.708;12.008;2023-03-11T13:30:33;5.05;;;1.10;;
48076;SDS011;33854;57.708;12.008;2023-03-11T13:41:21;3.42;;;1.10;;
48076;SDS011;33854;57.708;12.008;2023-03-11T13:43:54;2.85;;;0.90;;
48076;SDS011;33854;57.708;12.008;2023-03-11T13:46:30;3.42;;;1.00;;
48076;SDS011;33854;57.708;12.008;2023-03-11T13:49:06;2.13;;;1.10;;
48076;SDS011;33854;57.708;12.008;2023-03-11T13:56:50;3.17;;;1.00;;
48076;SDS011;33854;57.708;12.008;2023-03-11T14:01:52;3.55;;;0.77;;
48076;SDS011;33854;57.708;12.008;2023-03-11T14:04:27;1.40;;;0.70;;
48076;SDS011;33854;57.708;12.008;2023-03-11T14:06:54;4.03;;;0.40;;
48076;SDS011;33854;57.708;12.008;2023-03-11T14:09:24;2.30;;;0.50;;
48076;SDS011;33854;57.708;12.008;2023-03-11T14:11:52;1.48;;;0.30;;
48076;SDS011;33854;57.708;12.008;2023-03-11T14:14:41;4.72;;;0.52;;
48076;SDS011;33854;57.708;12.008;2023-03-11T14:17:24;5.90;;;0.80;;
48076;SDS011;33854;57.708;12.008;2023-03-11T14:22:45;1.42;;;0.43;;
48076;SDS011;33854;57.708;12.008;2023-03-11T14:25:26;0.88;;;0.40;;
48076;SDS011;33854;57.708;12.008;2023-03-11T14:27:58;3.92;;;0.60;;
48076;SDS011;33854;57.708;12.008;2023-03-11T14:30:27;3.22;;;0.80;;
48076;SDS011;33854;57.708;12.008;2023-03-11T14:32:58;5.22;;;0.90;;
48076;SDS011;33854;57.708;12.008;2023-03-11T14:35:26;5.05;;;0.65;;
48076;SDS011;33854;57.708;12.008;2023-03-11T14:37:53;2.05;;;0.38;;
48076;SDS011;33854;57.708;12.008;2023-03-11T14:40:28;2.07;;;0.40;;
48076;SDS011;33854;57.708;12.008;2023-03-11T14:42:57;0.63;;;0.60;;
48076;SDS011;33854;57.708;12.008;2023-03-11T14:45:30;1.17;;;0.47;;
48076;SDS011;33854;57.708;12.008;2023-03-11T14:50:24;2.70;;;0.40;;
48076;SDS011;33854;57.708;12.008;2023-03-11T14:53:00;5.43;;;1.02;;
48076;SDS011;33854;57.708;12.008;2023-03-11T14:58:09;0.63;;;0.10;;
48076;SDS011;33854;57.708;12.008;2023-03-11T15:00:36;1.92;;;0.20;;
48076;SDS011;33854;57.708;12.008;2023-03-11T15:03:23;1.05;;;0.50;;
48076;SDS011;33854;57.708;12.008;2023-03-11T15:05:57;6.70;;;0.65;;
48076;SDS011;33854;57.708;12.008;2023-03-11T15:08:27;2.00;;;0.40;;
48076;SDS011;33854;57.708;12.008;2023-03-11T15:11:13;3.45;;;0.50;;
48076;SDS011;33854;57.708;12.008;2023-03-11T15:13:44;1.50;;;0.20;;
48076;SDS011;33854;57.708;12.008;2023-03-11T15:16:25;1.30;;;0.22;;
48076;SDS011;33854;57.708;12.008;2023-03-11T15:18:53;0.55;;;0.20;;
48076;SDS011;33854;57.708;12.008;2023-03-11T15:21:19;1.33;;;0.30;;
48076;SDS011;33854;57.708;12.008;2023-03-11T15:23:52;1.70;;;0.30;;
48076;SDS011;33854;57.708;12.008;2023-03-11T15:26:27;1.25;;;0.20;;
48076;SDS011;33854;57.708;12.008;2023-03-11T15:28:59;2.40;;;1.15;;
48076;SDS011;33854;57.708;12.008;2023-03-11T15:31:30;2.00;;;0.30;;
48076;SDS011;33854;57.708;12.008;2023-03-11T15:34:19;4.65;;;0.40;;
48076;SDS011;33854;57.708;12.008;2023-03-11T15:39:18;4.07;;;0.30;;
48076;SDS011;33854;57.708;12.008;2023-03-11T15:44:31;5.93;;;0.73;;
48076;SDS011;33854;57.708;12.008;2023-03-11T15:47:15;6.93;;;0.57;;
48076;SDS011;33854;57.708;12.008;2023-03-11T15:49:42;3.42;;;0.50;;
48076;SDS011;33854;57.708;12.008;2023-03-11T15:52:08;3.77;;;0.60;;
48076;SDS011;33854;57.708;12.008;2023-03-11T15:54:34;4.93;;;0.98;;
48076;SDS011;33854;57.708;12.008;2023-03-11T15:57:00;3.23;;;0.40;;
48076;SDS011;33854;57.708;12.008;2023-03-11T15:59:28;3.38;;;0.70;;
48076;SDS011;33854;57.708;12.008;2023-03-11T16:01:54;2.70;;;0.30;;
48076;SDS011;33854;57.708;12.008;2023-03-11T16:04:20;3.30;;;0.67;;
48076;SDS011;33854;57.708;12.008;2023-03-11T16:06:46;5.95;;;0.65;;
48076;SDS011;33854;57.708;12.008;2023-03-11T16:14:05;3.88;;;0.70;;
48076;SDS011;33854;57.708;12.008;2023-03-11T16:16:31;3.08;;;0.60;;
48076;SDS011;33854;57.708;12.008;2023-03-11T16:18:57;4.03;;;0.40;;
48076;SDS011;33854;57.708;12.008;2023-03-11T16:21:23;3.40;;;1.47;;
48076;SDS011;33854;57.708;12.008;2023-03-11T16:23:57;3.58;;;0.60;;
48076;SDS011;33854;57.708;12.008;2023-03-11T16:26:23;3.20;;;0.40;;
48076;SDS011;33854;57.708;12.008;2023-03-11T16:28:48;1.50;;;0.47;;
48076;SDS011;33854;57.708;12.008;2023-03-11T16:31:13;4.93;;;0.60;;
48076;SDS011;33854;57.708;12.008;2023-03-11T16:33:39;1.67;;;0.40;;
48076;SDS011;33854;57.708;12.008;2023-03-11T16:36:04;3.20;;;0.40;;
48076;SDS011;33854;57.708;12.008;2023-03-11T16:38:30;5.60;;;0.43;;
48076;SDS011;33854;57.708;12.008;2023-03-11T16:41:06;0.93;;;0.55;;
48076;SDS011;33854;57.708;12.008;2023-03-11T16:43:31;2.83;;;0.57;;
48076;SDS011;33854;57.708;12.008;2023-03-11T16:45:57;6.50;;;0.57;;
48076;SDS011;33854;57.708;12.008;2023-03-11T16:48:22;7.17;;;0.90;;
48076;SDS011;33854;57.708;12.008;2023-03-11T16:50:48;4.72;;;0.77;;
48076;SDS011;33854;57.708;12.008;2023-03-11T16:53:14;0.57;;;0.20;;
48076;SDS011;33854;57.708;12.008;2023-03-11T16:55:42;3.10;;;0.50;;
48076;SDS011;33854;57.708;12.008;2023-03-11T16:58:09;3.25;;;0.55;;
48076;SDS011;33854;57.708;12.008;2023-03-11T17:00:34;4.23;;;0.47;;
48076;SDS011;33854;57.708;12.008;2023-03-11T17:02:59;0.77;;;0.27;;
48076;SDS011;33854;57.708;12.008;2023-03-11T17:05:25;3.63;;;0.43;;
48076;SDS011;33854;57.708;12.008;2023-03-11T17:07:55;3.93;;;0.60;;
48076;SDS011;33854;57.708;12.008;2023-03-11T17:10:25;6.32;;;0.77;;
48076;SDS011;33854;57.708;12.008;2023-03-11T17:12:52;3.80;;;0.30;;
48076;SDS011;33854;57.708;12.008;2023-03-11T17:15:18;3.60;;;0.57;;
48076;SDS011;33854;57.708;12.008;2023-03-11T17:17:44;2.50;;;0.50;;
48076;SDS011;33854;57.708;12.008;2023-03-11T17:20:09;5.80;;;0.50;;
48076;SDS011;33854;57.708;12.008;2023-03-11T17:22:35;2.35;;;0.47;;
48076;SDS011;33854;57.708;12.008;2023-03-11T17:25:01;2.10;;;0.50;;
48076;SDS011;33854;57.708;12.008;2023-03-11T17:27:28;1.63;;;0.35;;
48076;SDS011;33854;57.708;12.008;2023-03-11T17:29:59;4.20;;;0.30;;